sensor_id;sensor_type;location;lat;lon;timestamp;pressure;altitude;pressure_sealevel;temperature
78917;BMP280;68315;48.608;11.436;2023-07-13T00:01:43;97177.53;;;19.38
78917;BMP280;68315;48.608;11.436;2023-07-13T00:04:09;97174.28;;;19.41
78917;BMP280;68315;48.608;11.436;2023-07-13T00:06:34;97171.63;;;19.43
78917;BMP280;68315;48.608;11.436;2023-07-13T00:09:00;97176.94;;;19.39
78917;BMP280;68315;48.608;11.436;2023-07-13T00:11:26;97181.66;;;19.37
78917;BMP280;68315;48.608;11.436;2023-07-13T00:13:51;97191.31;;;19.36
78917;BMP280;68315;48.608;11.436;2023-07-13T00:16:16;97188.53;;;19.36
78917;BMP280;68315;48.608;11.436;2023-07-13T00:18:44;97187.81;;;19.35
78917;BMP280;68315;48.608;11.436;2023-07-13T00:21:09;97177.38;;;19.36
78917;BMP280;68315;48.608;11.436;2023-07-13T00:23:36;97175.19;;;19.34
78917;BMP280;68315;48.608;11.436;2023-07-13T00:26:03;97179.44;;;19.35
78917;BMP280;68315;48.608;11.436;2023-07-13T00:28:29;97180.78;;;19.34
78917;BMP280;68315;48.608;11.436;2023-07-13T00:30:55;97174.47;;;19.34
78917;BMP280;68315;48.608;11.436;2023-07-13T00:33:20;97179.19;;;19.31
78917;BMP280;68315;48.608;11.436;2023-07-13T00:35:46;97181.38;;;19.33
78917;BMP280;68315;48.608;11.436;2023-07-13T00:38:12;97176.41;;;19.31
78917;BMP280;68315;48.608;11.436;2023-07-13T00:40:37;97167.19;;;19.29
78917;BMP280;68315;48.608;11.436;2023-07-13T00:43:09;97157.91;;;19.26
78917;BMP280;68315;48.608;11.436;2023-07-13T00:48:12;97173.94;;;19.26
78917;BMP280;68315;48.608;11.436;2023-07-13T00:50:39;97178.03;;;19.25
78917;BMP280;68315;48.608;11.436;2023-07-13T00:53:05;97172.34;;;19.23
78917;BMP280;68315;48.608;11.436;2023-07-13T00:55:30;97170.75;;;19.20
78917;BMP280;68315;48.608;11.436;2023-07-13T00:57:56;97173.53;;;19.20
78917;BMP280;68315;48.608;11.436;2023-07-13T01:00:22;97181.47;;;19.14
78917;BMP280;68315;48.608;11.436;2023-07-13T01:02:49;97180.53;;;19.21
78917;BMP280;68315;48.608;11.436;2023-07-13T01:05:20;97193.59;;;19.18
78917;BMP280;68315;48.608;11.436;2023-07-13T01:07:47;97193.47;;;19.16
78917;BMP280;68315;48.608;11.436;2023-07-13T01:10:14;97184.81;;;19.12
78917;BMP280;68315;48.608;11.436;2023-07-13T01:12:39;97184.69;;;19.10
78917;BMP280;68315;48.608;11.436;2023-07-13T01:15:05;97178.25;;;19.08
78917;BMP280;68315;48.608;11.436;2023-07-13T01:17:34;97181.78;;;19.08
78917;BMP280;68315;48.608;11.436;2023-07-13T01:20:00;97182.50;;;19.09
78917;BMP280;68315;48.608;11.436;2023-07-13T01:22:26;97178.53;;;19.12
78917;BMP280;68315;48.608;11.436;2023-07-13T01:24:53;97177.09;;;19.11
78917;BMP280;68315;48.608;11.436;2023-07-13T01:27:24;97185.28;;;19.09
78917;BMP280;68315;48.608;11.436;2023-07-13T01:29:51;97168.56;;;19.09
78917;BMP280;68315;48.608;11.436;2023-07-13T01:32:19;97160.22;;;19.09
78917;BMP280;68315;48.608;11.436;2023-07-13T01:34:52;97170.63;;;19.08
78917;BMP280;68315;48.608;11.436;2023-07-13T01:37:20;97163.59;;;19.07
78917;BMP280;68315;48.608;11.436;2023-07-13T01:39:45;97155.97;;;19.08
78917;BMP280;68315;48.608;11.436;2023-07-13T01:42:12;97142.78;;;19.08
78917;BMP280;68315;48.608;11.436;2023-07-13T01:44:37;97137.09;;;19.06
78917;BMP280;68315;48.608;11.436;2023-07-13T01:47:02;97136.34;;;19.06
78917;BMP280;68315;48.608;11.436;2023-07-13T01:49:28;97131.50;;;19.06
78917;BMP280;68315;48.608;11.436;2023-07-13T01:51:53;97131.94;;;19.03
78917;BMP280;68315;48.608;11.436;2023-07-13T01:54:18;97136.91;;;19.04
78917;BMP280;68315;48.608;11.436;2023-07-13T01:56:44;97131.94;;;19.03
78917;BMP280;68315;48.608;11.436;2023-07-13T01:59:09;97129.75;;;19.01
78917;BMP280;68315;48.608;11.436;2023-07-13T02:01:35;97128.75;;;18.97
78917;BMP280;68315;48.608;11.436;2023-07-13T02:04:00;97130.81;;;18.96
78917;BMP280;68315;48.608;11.436;2023-07-13T02:06:25;97139.75;;;18.95
78917;BMP280;68315;48.608;11.436;2023-07-13T02:08:50;97128.47;;;18.93
78917;BMP280;68315;48.608;11.436;2023-07-13T02:11:16;97132.38;;;18.99
78917;BMP280;68315;48.608;11.436;2023-07-13T02:13:42;97136.66;;;19.00
78917;BMP280;68315;48.608;11.436;2023-07-13T02:16:07;97142.22;;;19.00
78917;BMP280;68315;48.608;11.436;2023-07-13T02:18:32;97136.91;;;19.04
78917;BMP280;68315;48.608;11.436;2023-07-13T02:20:58;97145.16;;;19.02
78917;BMP280;68315;48.608;11.436;2023-07-13T02:23:23;97151.16;;;18.99
78917;BMP280;68315;48.608;11.436;2023-07-13T02:25:48;97150.03;;;18.92
78917;BMP280;68315;48.608;11.436;2023-07-13T02:28:14;97158.09;;;18.88
78917;BMP280;68315;48.608;11.436;2023-07-13T02:30:39;97164.28;;;18.87
78917;BMP280;68315;48.608;11.436;2023-07-13T02:33:05;97168.06;;;18.91
78917;BMP280;68315;48.608;11.436;2023-07-13T02:35:30;97170.84;;;18.91
78917;BMP280;68315;48.608;11.436;2023-07-13T02:37:56;97177.72;;;18.90
78917;BMP280;68315;48.608;11.436;2023-07-13T02:40:21;97182.53;;;18.90
78917;BMP280;68315;48.608;11.436;2023-07-13T02:42:46;97177.72;;;18.90
78917;BMP280;68315;48.608;11.436;2023-07-13T02:45:12;97184.03;;;18.91
78917;BMP280;68315;48.608;11.436;2023-07-13T02:47:40;97185.94;;;18.88
78917;BMP280;68315;48.608;11.436;2023-07-13T02:50:06;97186.25;;;18.83
78917;BMP280;68315;48.608;11.436;2023-07-13T02:52:32;97190.81;;;18.78
78917;BMP280;68315;48.608;11.436;2023-07-13T02:54:57;97203.84;;;18.76
78917;BMP280;68315;48.608;11.436;2023-07-13T02:57:22;97197.41;;;18.73
78917;BMP280;68315;48.608;11.436;2023-07-13T02:59:47;97192.00;;;18.75
78917;BMP280;68315;48.608;11.436;2023-07-13T03:02:13;97192.72;;;18.76
78917;BMP280;68315;48.608;11.436;2023-07-13T03:04:38;97199.75;;;18.77
78917;BMP280;68315;48.608;11.436;2023-07-13T03:07:04;97194.91;;;18.77
78917;BMP280;68315;48.608;11.436;2023-07-13T03:09:32;97195.91;;;18.82
78917;BMP280;68315;48.608;11.436;2023-07-13T03:11:58;97207.94;;;18.84
78917;BMP280;68315;48.608;11.436;2023-07-13T03:14:23;97207.94;;;18.94
78917;BMP280;68315;48.608;11.436;2023-07-13T03:16:48;97207.50;;;18.88
78917;BMP280;68315;48.608;11.436;2023-07-13T03:19:14;97205.91;;;18.85
78917;BMP280;68315;48.608;11.436;2023-07-13T03:21:39;97212.06;;;18.83
78917;BMP280;68315;48.608;11.436;2023-07-13T03:24:04;97215.41;;;18.82
78917;BMP280;68315;48.608;11.436;2023-07-13T03:26:30;97212.06;;;18.83
78917;BMP280;68315;48.608;11.436;2023-07-13T03:28:55;97210.72;;;18.84
78917;BMP280;68315;48.608;11.436;2023-07-13T03:31:22;97212.91;;;18.86
78917;BMP280;68315;48.608;11.436;2023-07-13T03:33:48;97215.84;;;18.88
78917;BMP280;68315;48.608;11.436;2023-07-13T03:36:17;97218.47;;;18.86
78917;BMP280;68315;48.608;11.436;2023-07-13T03:38:54;97221.41;;;18.88
78917;BMP280;68315;48.608;11.436;2023-07-13T03:41:20;97223.00;;;18.91
78917;BMP280;68315;48.608;11.436;2023-07-13T03:43:45;97223.75;;;18.91
78917;BMP280;68315;48.608;11.436;2023-07-13T03:46:12;97225.69;;;18.89
78917;BMP280;68315;48.608;11.436;2023-07-13T03:48:38;97221.41;;;18.88
78917;BMP280;68315;48.608;11.436;2023-07-13T03:51:05;97214.38;;;18.87
78917;BMP280;68315;48.608;11.436;2023-07-13T03:53:30;97209.53;;;18.87
78917;BMP280;68315;48.608;11.436;2023-07-13T03:55:55;97212.19;;;18.85
78917;BMP280;68315;48.608;11.436;2023-07-13T03:58:31;97212.19;;;18.85
78917;BMP280;68315;48.608;11.436;2023-07-13T04:00:57;97218.94;;;18.82
78917;BMP280;68315;48.608;11.436;2023-07-13T04:03:24;97220.97;;;18.82
78917;BMP280;68315;48.608;11.436;2023-07-13T04:05:49;97227.88;;;18.81
78917;BMP280;68315;48.608;11.436;2023-07-13T04:08:14;97222.91;;;18.79
78917;BMP280;68315;48.608;11.436;2023-07-13T04:10:39;97224.06;;;18.76
78917;BMP280;68315;48.608;11.436;2023-07-13T04:13:05;97222.75;;;18.77
78917;BMP280;68315;48.608;11.436;2023-07-13T04:15:31;97233.88;;;18.77
78917;BMP280;68315;48.608;11.436;2023-07-13T04:17:58;97225.97;;;18.74
78917;BMP280;68315;48.608;11.436;2023-07-13T04:20:25;97235.81;;;18.75
78917;BMP280;68315;48.608;11.436;2023-07-13T04:22:50;97229.63;;;18.76
78917;BMP280;68315;48.608;11.436;2023-07-13T04:25:16;97236.38;;;18.73
78917;BMP280;68315;48.608;11.436;2023-07-13T04:27:41;97234.34;;;18.74
78917;BMP280;68315;48.608;11.436;2023-07-13T04:30:07;97235.53;;;18.71
78917;BMP280;68315;48.608;11.436;2023-07-13T04:32:32;97247.41;;;18.71
78917;BMP280;68315;48.608;11.436;2023-07-13T04:34:58;97249.16;;;18.67
78917;BMP280;68315;48.608;11.436;2023-07-13T04:37:25;97246.22;;;18.64
78917;BMP280;68315;48.608;11.436;2023-07-13T04:39:50;97252.63;;;18.67
78917;BMP280;68315;48.608;11.436;2023-07-13T04:42:16;97254.25;;;18.70
78917;BMP280;68315;48.608;11.436;2023-07-13T04:44:41;97256.91;;;18.68
78917;BMP280;68315;48.608;11.436;2023-07-13T04:47:07;97257.53;;;18.67
78917;BMP280;68315;48.608;11.436;2023-07-13T04:49:32;97273.59;;;18.68
78917;BMP280;68315;48.608;11.436;2023-07-13T04:51:57;97270.25;;;18.70
78917;BMP280;68315;48.608;11.436;2023-07-13T04:54:22;97281.09;;;18.66
78917;BMP280;68315;48.608;11.436;2023-07-13T04:56:48;97275.66;;;18.67
78917;BMP280;68315;48.608;11.436;2023-07-13T04:59:13;97279.63;;;18.64
78917;BMP280;68315;48.608;11.436;2023-07-13T05:01:38;97280.34;;;18.65
78917;BMP280;68315;48.608;11.436;2023-07-13T05:04:04;97279.06;;;18.66
78917;BMP280;68315;48.608;11.436;2023-07-13T05:06:29;97284.91;;;18.70
78917;BMP280;68315;48.608;11.436;2023-07-13T05:08:55;97280.22;;;18.73
78917;BMP280;68315;48.608;11.436;2023-07-13T05:11:21;97280.81;;;18.71
78917;BMP280;68315;48.608;11.436;2023-07-13T05:13:46;97290.59;;;18.72
78917;BMP280;68315;48.608;11.436;2023-07-13T05:16:12;97291.34;;;18.73
78917;BMP280;68315;48.608;11.436;2023-07-13T05:18:37;97290.59;;;18.72
78917;BMP280;68315;48.608;11.436;2023-07-13T05:21:05;97294.84;;;18.73
78917;BMP280;68315;48.608;11.436;2023-07-13T05:23:31;97301.59;;;18.70
78917;BMP280;68315;48.608;11.436;2023-07-13T05:25:57;97305.41;;;18.65
78917;BMP280;68315;48.608;11.436;2023-07-13T05:28:22;97301.16;;;18.64
78917;BMP280;68315;48.608;11.436;2023-07-13T05:30:49;97292.53;;;18.60
78917;BMP280;68315;48.608;11.436;2023-07-13T05:33:14;97308.31;;;18.57
78917;BMP280;68315;48.608;11.436;2023-07-13T05:35:40;97301.31;;;18.56
78917;BMP280;68315;48.608;11.436;2023-07-13T05:38:05;97303.66;;;18.60
78917;BMP280;68315;48.608;11.436;2023-07-13T05:40:31;97289.72;;;18.60
78917;BMP280;68315;48.608;11.436;2023-07-13T05:42:56;97299.28;;;18.67
78917;BMP280;68315;48.608;11.436;2023-07-13T05:45:21;97298.09;;;18.70
78917;BMP280;68315;48.608;11.436;2023-07-13T05:47:47;97299.56;;;18.71
78917;BMP280;68315;48.608;11.436;2023-07-13T05:50:12;97298.53;;;18.76
78917;BMP280;68315;48.608;11.436;2023-07-13T05:52:37;97303.50;;;18.77
78917;BMP280;68315;48.608;11.436;2023-07-13T05:55:03;97300.28;;;18.81
78917;BMP280;68315;48.608;11.436;2023-07-13T05:57:29;97303.06;;;18.81
78917;BMP280;68315;48.608;11.436;2023-07-13T05:59:55;97312.44;;;18.85
78917;BMP280;68315;48.608;11.436;2023-07-13T06:02:20;97312.44;;;18.95
78917;BMP280;68315;48.608;11.436;2023-07-13T06:04:45;97311.66;;;19.04
78917;BMP280;68315;48.608;11.436;2023-07-13T06:07:10;97319.41;;;19.24
78917;BMP280;68315;48.608;11.436;2023-07-13T06:09:36;97316.56;;;19.43
78917;BMP280;68315;48.608;11.436;2023-07-13T06:12:01;97320.63;;;19.52
78917;BMP280;68315;48.608;11.436;2023-07-13T06:14:26;97320.50;;;19.50
78917;BMP280;68315;48.608;11.436;2023-07-13T06:16:52;97317.44;;;19.46
78917;BMP280;68315;48.608;11.436;2023-07-13T06:19:17;97322.13;;;19.43
78917;BMP280;68315;48.608;11.436;2023-07-13T06:21:42;97317.44;;;19.55
78917;BMP280;68315;48.608;11.436;2023-07-13T06:24:07;97318.81;;;19.75
78917;BMP280;68315;48.608;11.436;2023-07-13T06:26:33;97309.56;;;19.94
78917;BMP280;68315;48.608;11.436;2023-07-13T06:28:58;97312.56;;;20.08
78917;BMP280;68315;48.608;11.436;2023-07-13T06:31:23;97313.06;;;20.04
78917;BMP280;68315;48.608;11.436;2023-07-13T06:33:48;97304.31;;;19.98
78917;BMP280;68315;48.608;11.436;2023-07-13T06:36:14;97315.31;;;19.96
78917;BMP280;68315;48.608;11.436;2023-07-13T06:38:39;97330.28;;;20.01
78917;BMP280;68315;48.608;11.436;2023-07-13T06:41:07;97325.97;;;20.09
78917;BMP280;68315;48.608;11.436;2023-07-13T06:43:32;97334.00;;;20.15
78917;BMP280;68315;48.608;11.436;2023-07-13T06:45:58;97338.19;;;20.25
78917;BMP280;68315;48.608;11.436;2023-07-13T06:48:23;97337.06;;;20.40
78917;BMP280;68315;48.608;11.436;2023-07-13T06:50:49;97346.78;;;20.60
78917;BMP280;68315;48.608;11.436;2023-07-13T06:53:17;97338.13;;;20.77
78917;BMP280;68315;48.608;11.436;2023-07-13T06:55:43;97344.72;;;20.93
78917;BMP280;68315;48.608;11.436;2023-07-13T06:58:09;97333.22;;;21.10
78917;BMP280;68315;48.608;11.436;2023-07-13T07:00:34;97351.19;;;21.07
78917;BMP280;68315;48.608;11.436;2023-07-13T07:02:59;97353.00;;;21.02
78917;BMP280;68315;48.608;11.436;2023-07-13T07:05:25;97358.59;;;21.02
78917;BMP280;68315;48.608;11.436;2023-07-13T07:07:51;97357.00;;;20.99
78917;BMP280;68315;48.608;11.436;2023-07-13T07:10:18;97354.56;;;20.94
78917;BMP280;68315;48.608;11.436;2023-07-13T07:12:44;97363.53;;;20.92
78917;BMP280;68315;48.608;11.436;2023-07-13T07:15:10;97365.25;;;20.97
78917;BMP280;68315;48.608;11.436;2023-07-13T07:17:35;97362.84;;;21.03
78917;BMP280;68315;48.608;11.436;2023-07-13T07:20:01;97355.19;;;21.04
78917;BMP280;68315;48.608;11.436;2023-07-13T07:22:27;97365.13;;;20.95
78917;BMP280;68315;48.608;11.436;2023-07-13T07:24:53;97369.88;;;20.93
78917;BMP280;68315;48.608;11.436;2023-07-13T07:27:18;97369.41;;;20.96
78917;BMP280;68315;48.608;11.436;2023-07-13T07:29:43;97361.59;;;20.95
78917;BMP280;68315;48.608;11.436;2023-07-13T07:32:09;97365.88;;;20.96
78917;BMP280;68315;48.608;11.436;2023-07-13T07:34:34;97368.06;;;20.97
78917;BMP280;68315;48.608;11.436;2023-07-13T07:37:00;97365.72;;;20.94
78917;BMP280;68315;48.608;11.436;2023-07-13T07:39:26;97379.56;;;20.92
78917;BMP280;68315;48.608;11.436;2023-07-13T07:41:51;97386.13;;;20.85
78917;BMP280;68315;48.608;11.436;2023-07-13T07:44:17;97379.44;;;20.90
78917;BMP280;68315;48.608;11.436;2023-07-13T07:46:42;97383.56;;;20.89
78917;BMP280;68315;48.608;11.436;2023-07-13T07:49:07;97383.19;;;20.83
78917;BMP280;68315;48.608;11.436;2023-07-13T07:51:33;97376.00;;;20.80
78917;BMP280;68315;48.608;11.436;2023-07-13T07:53:58;97382.69;;;20.86
78917;BMP280;68315;48.608;11.436;2023-07-13T07:56:23;97387.25;;;20.91
78917;BMP280;68315;48.608;11.436;2023-07-13T07:58:48;97382.69;;;20.86
78917;BMP280;68315;48.608;11.436;2023-07-13T08:01:14;97396.47;;;20.94
78917;BMP280;68315;48.608;11.436;2023-07-13T08:03:39;97394.78;;;21.00
78917;BMP280;68315;48.608;11.436;2023-07-13T08:06:04;97400.28;;;21.10
78917;BMP280;68315;48.608;11.436;2023-07-13T08:08:30;97400.56;;;21.14
78917;BMP280;68315;48.608;11.436;2023-07-13T08:10:55;97398.28;;;21.22
78917;BMP280;68315;48.608;11.436;2023-07-13T08:13:20;97395.72;;;21.26
78917;BMP280;68315;48.608;11.436;2023-07-13T08:15:46;97395.97;;;21.30
78917;BMP280;68315;48.608;11.436;2023-07-13T08:18:11;97400.91;;;21.41
78917;BMP280;68315;48.608;11.436;2023-07-13T08:20:38;97399.47;;;21.63
78917;BMP280;68315;48.608;11.436;2023-07-13T08:23:03;97404.25;;;21.95
78917;BMP280;68315;48.608;11.436;2023-07-13T08:25:29;97403.97;;;22.26
78917;BMP280;68315;48.608;11.436;2023-07-13T08:27:54;97408.16;;;22.50
78917;BMP280;68315;48.608;11.436;2023-07-13T08:30:19;97406.16;;;22.76
78917;BMP280;68315;48.608;11.436;2023-07-13T08:32:44;97402.09;;;22.90
78917;BMP280;68315;48.608;11.436;2023-07-13T08:35:10;97412.84;;;22.82
78917;BMP280;68315;48.608;11.436;2023-07-13T08:37:35;97409.81;;;22.78
78917;BMP280;68315;48.608;11.436;2023-07-13T08:40:00;97408.13;;;22.73
78917;BMP280;68315;48.608;11.436;2023-07-13T08:42:45;97407.50;;;22.75
78917;BMP280;68315;48.608;11.436;2023-07-13T08:45:19;97416.50;;;22.73
78917;BMP280;68315;48.608;11.436;2023-07-13T08:47:55;97401.66;;;22.71
78917;BMP280;68315;48.608;11.436;2023-07-13T08:50:25;97408.72;;;22.72
78917;BMP280;68315;48.608;11.436;2023-07-13T08:52:52;97416.91;;;22.68
78917;BMP280;68315;48.608;11.436;2023-07-13T08:55:40;97415.44;;;22.67
78917;BMP280;68315;48.608;11.436;2023-07-13T08:58:14;97414.66;;;22.78
78917;BMP280;68315;48.608;11.436;2023-07-13T09:00:49;97407.06;;;22.92
78917;BMP280;68315;48.608;11.436;2023-07-13T09:03:23;97409.75;;;23.15
78917;BMP280;68315;48.608;11.436;2023-07-13T09:05:58;97413.84;;;23.25
78917;BMP280;68315;48.608;11.436;2023-07-13T09:11:24;97421.28;;;23.46
78917;BMP280;68315;48.608;11.436;2023-07-13T09:16:30;97403.25;;;23.62
78917;BMP280;68315;48.608;11.436;2023-07-13T09:19:00;97412.81;;;23.71
78917;BMP280;68315;48.608;11.436;2023-07-13T09:21:32;97410.78;;;23.98
78917;BMP280;68315;48.608;11.436;2023-07-13T09:26:47;97418.97;;;24.35
78917;BMP280;68315;48.608;11.436;2023-07-13T09:29:26;97416.16;;;24.35
78917;BMP280;68315;48.608;11.436;2023-07-13T09:31:55;97414.72;;;24.34
78917;BMP280;68315;48.608;11.436;2023-07-13T09:34:23;97421.78;;;24.35
78917;BMP280;68315;48.608;11.436;2023-07-13T09:36:48;97412.19;;;24.54
78917;BMP280;68315;48.608;11.436;2023-07-13T09:39:21;97420.38;;;24.63
78917;BMP280;68315;48.608;11.436;2023-07-13T09:44:53;97423.19;;;24.63
78917;BMP280;68315;48.608;11.436;2023-07-13T09:47:24;97419.47;;;24.45
78917;BMP280;68315;48.608;11.436;2023-07-13T09:50:00;97428.63;;;24.46
78917;BMP280;68315;48.608;11.436;2023-07-13T09:52:27;97435.50;;;24.56
78917;BMP280;68315;48.608;11.436;2023-07-13T09:54:53;97440.59;;;24.46
78917;BMP280;68315;48.608;11.436;2023-07-13T09:57:25;97435.63;;;24.31
78917;BMP280;68315;48.608;11.436;2023-07-13T09:59:53;97444.78;;;24.18
78917;BMP280;68315;48.608;11.436;2023-07-13T10:07:29;97433.72;;;24.49
78917;BMP280;68315;48.608;11.436;2023-07-13T10:09:56;97429.03;;;24.67
78917;BMP280;68315;48.608;11.436;2023-07-13T10:12:23;97418.66;;;24.85
78917;BMP280;68315;48.608;11.436;2023-07-13T10:14:55;97421.31;;;24.97
78917;BMP280;68315;48.608;11.436;2023-07-13T10:17:27;97420.72;;;25.14
78917;BMP280;68315;48.608;11.436;2023-07-13T10:20:00;97432.56;;;25.26
78917;BMP280;68315;48.608;11.436;2023-07-13T10:22:37;97433.94;;;25.40
78917;BMP280;68315;48.608;11.436;2023-07-13T10:25:14;97435.66;;;25.32
78917;BMP280;68315;48.608;11.436;2023-07-13T10:27:41;97432.63;;;25.28
78917;BMP280;68315;48.608;11.436;2023-07-13T10:30:13;97433.69;;;25.05
78917;BMP280;68315;48.608;11.436;2023-07-13T10:32:39;97437.56;;;24.98
78917;BMP280;68315;48.608;11.436;2023-07-13T10:35:09;97429.06;;;25.12
78917;BMP280;68315;48.608;11.436;2023-07-13T10:37:49;97436.34;;;25.17
78917;BMP280;68315;48.608;11.436;2023-07-13T10:40:21;97424.19;;;25.28
78917;BMP280;68315;48.608;11.436;2023-07-13T10:42:49;97424.13;;;25.41
78917;BMP280;68315;48.608;11.436;2023-07-13T10:45:21;97429.13;;;25.43
78917;BMP280;68315;48.608;11.436;2023-07-13T10:47:47;97429.22;;;25.45
78917;BMP280;68315;48.608;11.436;2023-07-13T10:50:18;97429.84;;;25.43
78917;BMP280;68315;48.608;11.436;2023-07-13T10:52:47;97433.22;;;25.55
78917;BMP280;68315;48.608;11.436;2023-07-13T10:58:28;97421.94;;;25.87
78917;BMP280;68315;48.608;11.436;2023-07-13T11:03:28;97430.94;;;26.32
78917;BMP280;68315;48.608;11.436;2023-07-13T11:08:38;97424.31;;;26.58
78917;BMP280;68315;48.608;11.436;2023-07-13T11:11:03;97428.09;;;26.65
78917;BMP280;68315;48.608;11.436;2023-07-13T11:21:28;97437.88;;;26.97
78917;BMP280;68315;48.608;11.436;2023-07-13T11:24:04;97436.06;;;27.05
78917;BMP280;68315;48.608;11.436;2023-07-13T11:31:57;97433.50;;;26.26
78917;BMP280;68315;48.608;11.436;2023-07-13T11:34:38;97431.91;;;26.38
78917;BMP280;68315;48.608;11.436;2023-07-13T11:37:10;97419.72;;;26.49
78917;BMP280;68315;48.608;11.436;2023-07-13T11:39:39;97415.34;;;26.46
78917;BMP280;68315;48.608;11.436;2023-07-13T11:42:11;97422.94;;;26.59
78917;BMP280;68315;48.608;11.436;2023-07-13T11:44:47;97422.09;;;26.57
78917;BMP280;68315;48.608;11.436;2023-07-13T11:47:22;97422.09;;;26.57
78917;BMP280;68315;48.608;11.436;2023-07-13T11:49:55;97423.44;;;26.71
78917;BMP280;68315;48.608;11.436;2023-07-13T11:52:36;97418.03;;;26.95
78917;BMP280;68315;48.608;11.436;2023-07-13T11:55:04;97416.47;;;27.09
78917;BMP280;68315;48.608;11.436;2023-07-13T11:57:43;97417.75;;;27.24
78917;BMP280;68315;48.608;11.436;2023-07-13T12:00:13;97407.75;;;27.21
78917;BMP280;68315;48.608;11.436;2023-07-13T12:02:43;97410.50;;;27.19
78917;BMP280;68315;48.608;11.436;2023-07-13T12:05:12;97398.72;;;27.24
78917;BMP280;68315;48.608;11.436;2023-07-13T12:07:38;97397.47;;;27.29
78917;BMP280;68315;48.608;11.436;2023-07-13T12:12:53;97397.31;;;27.82
78917;BMP280;68315;48.608;11.436;2023-07-13T12:15:21;97390.22;;;27.81
78917;BMP280;68315;48.608;11.436;2023-07-13T12:17:48;97395.59;;;27.53
78917;BMP280;68315;48.608;11.436;2023-07-13T12:20:33;97389.19;;;27.33
78917;BMP280;68315;48.608;11.436;2023-07-13T12:22:59;97392.19;;;27.20
78917;BMP280;68315;48.608;11.436;2023-07-13T12:25:24;97400.91;;;27.45
78917;BMP280;68315;48.608;11.436;2023-07-13T12:27:50;97390.84;;;27.60
78917;BMP280;68315;48.608;11.436;2023-07-13T12:30:28;97399.06;;;27.71
78917;BMP280;68315;48.608;11.436;2023-07-13T12:33:01;97383.03;;;27.58
78917;BMP280;68315;48.608;11.436;2023-07-13T12:35:29;97386.88;;;27.67
78917;BMP280;68315;48.608;11.436;2023-07-13T12:37:57;97383.47;;;27.70
78917;BMP280;68315;48.608;11.436;2023-07-13T12:40:27;97379.91;;;27.90
78917;BMP280;68315;48.608;11.436;2023-07-13T12:42:53;97377.84;;;28.12
78917;BMP280;68315;48.608;11.436;2023-07-13T12:45:21;97374.59;;;28.41
78917;BMP280;68315;48.608;11.436;2023-07-13T12:47:50;97372.13;;;28.53
78917;BMP280;68315;48.608;11.436;2023-07-13T12:50:20;97372.50;;;28.22
78917;BMP280;68315;48.608;11.436;2023-07-13T12:52:54;97365.41;;;27.79
78917;BMP280;68315;48.608;11.436;2023-07-13T12:55:21;97362.03;;;27.83
78917;BMP280;68315;48.608;11.436;2023-07-13T12:57:52;97371.06;;;27.99
78917;BMP280;68315;48.608;11.436;2023-07-13T13:02:56;97363.03;;;28.56
78917;BMP280;68315;48.608;11.436;2023-07-13T13:07:52;97358.72;;;29.00
78917;BMP280;68315;48.608;11.436;2023-07-13T13:10:17;97349.97;;;29.14
78917;BMP280;68315;48.608;11.436;2023-07-13T13:12:43;97351.28;;;29.11
78917;BMP280;68315;48.608;11.436;2023-07-13T13:15:09;97352.00;;;29.37
78917;BMP280;68315;48.608;11.436;2023-07-13T13:17:35;97349.81;;;29.33
78917;BMP280;68315;48.608;11.436;2023-07-13T13:20:01;97341.78;;;29.51
78917;BMP280;68315;48.608;11.436;2023-07-13T13:22:26;97335.97;;;29.73
78917;BMP280;68315;48.608;11.436;2023-07-13T13:24:51;97339.13;;;29.85
78917;BMP280;68315;48.608;11.436;2023-07-13T13:27:21;97342.06;;;29.61
78917;BMP280;68315;48.608;11.436;2023-07-13T13:29:49;97340.97;;;29.21
78917;BMP280;68315;48.608;11.436;2023-07-13T13:32:16;97334.75;;;29.03
78917;BMP280;68315;48.608;11.436;2023-07-13T13:34:42;97335.44;;;28.78
78917;BMP280;68315;48.608;11.436;2023-07-13T13:37:22;97336.75;;;28.52
78917;BMP280;68315;48.608;11.436;2023-07-13T13:39:49;97332.56;;;28.31
78917;BMP280;68315;48.608;11.436;2023-07-13T13:42:14;97333.78;;;28.48
78917;BMP280;68315;48.608;11.436;2023-07-13T13:44:39;97330.00;;;28.86
78917;BMP280;68315;48.608;11.436;2023-07-13T13:47:22;97325.28;;;29.44
78917;BMP280;68315;48.608;11.436;2023-07-13T13:49:51;97335.28;;;29.72
78917;BMP280;68315;48.608;11.436;2023-07-13T13:52:16;97331.38;;;29.85
78917;BMP280;68315;48.608;11.436;2023-07-13T13:54:41;97330.09;;;29.92
78917;BMP280;68315;48.608;11.436;2023-07-13T13:57:08;97337.03;;;29.85
78917;BMP280;68315;48.608;11.436;2023-07-13T13:59:33;97337.69;;;29.56
78917;BMP280;68315;48.608;11.436;2023-07-13T14:02:19;97335.19;;;29.43
78917;BMP280;68315;48.608;11.436;2023-07-13T14:04:47;97337.41;;;29.46
78917;BMP280;68315;48.608;11.436;2023-07-13T14:07:13;97348.19;;;29.77
78917;BMP280;68315;48.608;11.436;2023-07-13T14:09:38;97342.47;;;30.03
78917;BMP280;68315;48.608;11.436;2023-07-13T14:12:04;97338.13;;;30.29
78917;BMP280;68315;48.608;11.436;2023-07-13T14:14:31;97341.59;;;30.58
78917;BMP280;68315;48.608;11.436;2023-07-13T14:16:57;97336.56;;;30.86
78917;BMP280;68315;48.608;11.436;2023-07-13T14:19:23;97335.84;;;30.53
78917;BMP280;68315;48.608;11.436;2023-07-13T14:21:49;97341.41;;;30.48
78917;BMP280;68315;48.608;11.436;2023-07-13T14:24:14;97341.91;;;30.10
78917;BMP280;68315;48.608;11.436;2023-07-13T14:26:40;97342.72;;;29.85
78917;BMP280;68315;48.608;11.436;2023-07-13T14:29:14;97341.25;;;29.84
78917;BMP280;68315;48.608;11.436;2023-07-13T14:31:41;97347.13;;;29.92
78917;BMP280;68315;48.608;11.436;2023-07-13T14:34:09;97340.16;;;29.70
78917;BMP280;68315;48.608;11.436;2023-07-13T14:36:40;97351.50;;;29.19
78917;BMP280;68315;48.608;11.436;2023-07-13T14:39:15;97351.69;;;29.25
78917;BMP280;68315;48.608;11.436;2023-07-13T14:41:42;97349.66;;;29.55
78917;BMP280;68315;48.608;11.436;2023-07-13T14:44:16;97340.72;;;29.64
78917;BMP280;68315;48.608;11.436;2023-07-13T14:46:42;97335.50;;;29.55